createdAt,value
2023-03-25T00:02:23.831Z,6.55
2023-03-25T00:04:56.295Z,5.07
2023-03-25T00:07:26.055Z,6.57
2023-03-25T00:09:55.565Z,6.07
2023-03-25T00:12:25.001Z,6.00
2023-03-25T00:14:56.174Z,5.23
2023-03-25T00:17:26.914Z,5.75
2023-03-25T00:22:27.564Z,5.80
2023-03-25T00:24:57.163Z,5.40
2023-03-25T00:27:26.378Z,5.47
2023-03-25T00:29:56.097Z,6.68
2023-03-25T00:32:25.417Z,5.82
2023-03-25T00:34:55.496Z,8.00
2023-03-25T00:37:27.493Z,7.13
2023-03-25T00:39:57.057Z,6.07
2023-03-25T00:42:27.398Z,6.40
2023-03-25T00:44:57.013Z,5.63
2023-03-25T00:47:27.349Z,7.18
2023-03-25T00:49:56.962Z,7.43
2023-03-25T00:52:27.782Z,6.43
2023-03-25T00:54:57.680Z,6.43
2023-03-25T00:57:28.226Z,5.75
2023-03-25T00:59:57.845Z,6.65
2023-03-25T01:02:27.984Z,6.25
2023-03-25T01:04:57.865Z,6.20
2023-03-25T01:07:29.671Z,5.93
2023-03-25T01:09:59.354Z,5.55
2023-03-25T01:12:29.130Z,6.03
2023-03-25T01:14:58.816Z,5.57
2023-03-25T01:17:28.546Z,7.05
2023-03-25T01:19:59.134Z,5.23
2023-03-25T01:22:30.110Z,7.47
2023-03-25T01:24:59.861Z,5.85
2023-03-25T01:27:30.720Z,5.20
2023-03-25T01:30:00.706Z,5.47
2023-03-25T01:32:31.275Z,6.93
2023-03-25T01:37:34.379Z,5.35
2023-03-25T01:40:05.613Z,5.03
2023-03-25T01:42:34.807Z,5.28
2023-03-25T01:45:29.506Z,4.15
2023-03-25T01:48:06.711Z,5.38
2023-03-25T01:50:37.562Z,4.97
2023-03-25T01:53:10.690Z,5.90
2023-03-25T01:55:42.152Z,4.82
2023-03-25T01:58:14.494Z,5.25
2023-03-25T02:00:47.928Z,4.50
2023-03-25T02:03:19.474Z,4.60
2023-03-25T02:05:54.580Z,4.68
2023-03-25T02:08:26.386Z,4.57
2023-03-25T02:10:56.720Z,4.35
2023-03-25T02:13:26.413Z,4.50
2023-03-25T02:16:12.762Z,4.70
2023-03-25T02:18:51.587Z,4.43
2023-03-25T02:22:01.480Z,5.93
2023-03-25T02:25:19.734Z,4.20
2023-03-25T02:28:02.460Z,4.68
2023-03-25T02:31:07.387Z,4.90
2023-03-25T02:33:58.151Z,5.35
2023-03-25T02:37:12.327Z,5.70
2023-03-25T02:39:48.359Z,5.18
2023-03-25T02:42:24.476Z,4.50
2023-03-25T02:45:00.155Z,5.40
2023-03-25T02:47:34.902Z,5.15
2023-03-25T02:50:09.066Z,5.22
2023-03-25T02:52:42.372Z,5.72
2023-03-25T02:55:17.020Z,5.13
2023-03-25T02:57:50.018Z,4.38
2023-03-25T03:00:31.102Z,4.45
2023-03-25T03:03:04.320Z,4.50
2023-03-25T03:05:36.148Z,5.00
2023-03-25T03:08:19.325Z,5.18
2023-03-25T03:10:57.464Z,5.18
2023-03-25T03:13:36.479Z,5.22
2023-03-25T03:16:15.583Z,4.30
2023-03-25T03:18:53.121Z,5.30
2023-03-25T03:21:30.399Z,4.50
2023-03-25T03:24:06.731Z,4.68
2023-03-25T03:26:42.068Z,5.13
2023-03-25T03:29:16.642Z,5.38
2023-03-25T03:32:05.828Z,5.07
2023-03-25T03:34:45.195Z,4.18
2023-03-25T03:37:18.504Z,4.63
2023-03-25T03:39:50.540Z,4.47
2023-03-25T03:42:27.971Z,5.05
2023-03-25T03:45:02.829Z,4.15
2023-03-25T03:47:37.157Z,4.30
2023-03-25T03:50:10.681Z,4.65
2023-03-25T03:52:43.696Z,5.75
2023-03-25T03:55:16.516Z,5.32
2023-03-25T03:57:52.788Z,5.53
2023-03-25T04:00:27.305Z,4.65
2023-03-25T04:03:00.464Z,5.68
2023-03-25T04:05:31.304Z,4.25
2023-03-25T04:08:12.159Z,4.53
2023-03-25T04:10:45.924Z,5.10
2023-03-25T04:13:19.114Z,4.00
2023-03-25T04:15:49.415Z,4.80
2023-03-25T04:18:23.598Z,5.00
2023-03-25T04:20:53.399Z,5.13
2023-03-25T04:23:24.161Z,5.63
2023-03-25T04:25:54.463Z,4.20
2023-03-25T04:30:56.030Z,4.75
2023-03-25T04:33:26.623Z,5.43
2023-03-25T04:35:55.831Z,4.88
2023-03-25T04:38:26.034Z,4.93
2023-03-25T04:40:55.263Z,5.45
2023-03-25T04:43:26.437Z,4.80
2023-03-25T04:45:55.797Z,4.68
2023-03-25T04:48:30.232Z,4.93
2023-03-25T04:51:00.541Z,4.57
2023-03-25T04:55:59.432Z,4.13
2023-03-25T04:58:30.870Z,4.32
2023-03-25T05:01:06.407Z,4.40
2023-03-25T05:03:40.307Z,5.03
2023-03-25T05:06:09.793Z,4.90
2023-03-25T05:08:39.688Z,4.60
2023-03-25T05:11:09.431Z,4.32
2023-03-25T05:13:40.880Z,3.90
2023-03-25T05:16:10.467Z,4.28
2023-03-25T05:18:40.079Z,4.43
2023-03-25T05:21:11.633Z,4.07
2023-03-25T05:23:42.139Z,4.00
2023-03-25T05:26:13.404Z,3.88
2023-03-25T05:28:44.807Z,3.83
2023-03-25T05:31:14.556Z,3.38
2023-03-25T05:33:44.234Z,3.73
2023-03-25T05:36:16.610Z,4.63
2023-03-25T05:38:46.452Z,4.63
2023-03-25T05:41:17.164Z,3.28
2023-03-25T05:43:51.003Z,3.35
2023-03-25T05:46:20.976Z,3.55
2023-03-25T05:48:51.536Z,3.38
2023-03-25T05:51:22.126Z,3.83
2023-03-25T05:56:23.336Z,2.65
2023-03-25T05:58:55.158Z,3.20
2023-03-25T06:01:32.547Z,4.00
2023-03-25T06:04:03.908Z,3.83
2023-03-25T06:06:34.597Z,3.88
2023-03-25T06:09:05.849Z,4.07
2023-03-25T06:11:38.809Z,4.10
2023-03-25T06:14:10.171Z,4.18
2023-03-25T06:16:39.864Z,3.78
2023-03-25T06:19:09.693Z,4.40
2023-03-25T06:21:38.913Z,3.47
2023-03-25T06:24:09.750Z,5.25
2023-03-25T06:26:39.125Z,4.28
2023-03-25T06:29:10.205Z,5.03
2023-03-25T06:31:39.993Z,5.00
2023-03-25T06:34:09.645Z,5.68
2023-03-25T06:36:39.403Z,3.80
2023-03-25T06:39:09.170Z,3.80
2023-03-25T06:41:38.604Z,3.95
2023-03-25T06:44:09.896Z,3.90
2023-03-25T06:49:08.542Z,5.50
2023-03-25T06:51:37.810Z,3.20
2023-03-25T06:54:07.871Z,3.30
2023-03-25T06:56:37.923Z,3.33
2023-03-25T06:59:08.026Z,3.95
2023-03-25T07:01:39.317Z,4.72
2023-03-25T07:04:08.926Z,3.22
2023-03-25T07:06:38.106Z,4.00
2023-03-25T07:09:07.767Z,3.50
2023-03-25T07:11:37.267Z,3.28
2023-03-25T07:14:07.236Z,2.92
2023-03-25T07:16:38.070Z,3.90
2023-03-25T07:19:07.657Z,3.47
2023-03-25T07:21:36.974Z,3.90
2023-03-25T07:24:07.127Z,3.30
2023-03-25T07:26:36.331Z,3.17
2023-03-25T07:29:06.716Z,2.80
2023-03-25T07:31:36.229Z,3.27
2023-03-25T07:34:08.851Z,3.67
2023-03-25T07:36:38.601Z,2.95
2023-03-25T07:39:08.527Z,2.92
2023-03-25T07:41:37.866Z,3.58
2023-03-25T07:44:08.032Z,2.97
2023-03-25T07:46:37.930Z,3.67
2023-03-25T07:49:09.417Z,3.30
2023-03-25T07:51:38.734Z,3.65
2023-03-25T07:54:08.315Z,3.20
2023-03-25T07:56:37.835Z,3.17
2023-03-25T07:59:07.611Z,3.10
2023-03-25T08:01:37.363Z,5.32
2023-03-25T08:04:08.991Z,3.55
2023-03-25T08:06:38.687Z,3.33
2023-03-25T08:09:08.547Z,4.10
2023-03-25T08:11:37.748Z,3.20
2023-03-25T08:14:08.165Z,3.78
2023-03-25T08:16:37.417Z,3.80
2023-03-25T08:19:07.011Z,3.08
2023-03-25T08:21:37.760Z,3.15
2023-03-25T08:24:08.028Z,2.95
2023-03-25T08:26:38.951Z,4.50
2023-03-25T08:29:10.363Z,4.30
2023-03-25T08:31:40.748Z,3.53
2023-03-25T08:34:11.206Z,3.28
2023-03-25T08:36:41.951Z,3.42
2023-03-25T08:39:12.119Z,5.05
2023-03-25T08:41:41.629Z,3.30
2023-03-25T08:44:11.904Z,4.30
2023-03-25T08:46:41.410Z,3.17
2023-03-25T08:49:11.992Z,3.70
2023-03-25T08:51:42.713Z,3.03
2023-03-25T08:54:12.396Z,3.78
2023-03-25T08:56:41.643Z,3.30
2023-03-25T08:59:11.737Z,3.60
2023-03-25T09:01:42.530Z,3.35
2023-03-25T09:04:13.071Z,2.65
2023-03-25T09:06:48.229Z,4.05
2023-03-25T09:09:34.176Z,2.80
2023-03-25T09:12:03.570Z,2.63
2023-03-25T09:14:33.297Z,3.75
2023-03-25T09:17:02.785Z,3.28
2023-03-25T09:19:32.476Z,2.90
2023-03-25T09:22:03.148Z,3.45
2023-03-25T09:24:34.479Z,2.97
2023-03-25T09:27:04.181Z,3.50
2023-03-25T09:29:34.274Z,3.35
2023-03-25T09:32:03.958Z,3.65
2023-03-25T09:34:33.630Z,3.50
2023-03-25T09:37:04.810Z,4.15
2023-03-25T09:39:34.800Z,3.95
2023-03-25T09:42:20.746Z,2.97
2023-03-25T09:45:03.019Z,3.63
2023-03-25T09:47:39.638Z,3.28
2023-03-25T09:50:15.949Z,3.30
2023-03-25T09:52:55.373Z,3.80
2023-03-25T09:55:27.879Z,2.65
2023-03-25T09:58:04.736Z,3.50
2023-03-25T10:00:36.067Z,2.55
2023-03-25T10:03:20.406Z,2.42
2023-03-25T10:06:12.716Z,2.90
2023-03-25T10:08:58.726Z,2.65
2023-03-25T10:11:38.651Z,2.72
2023-03-25T10:14:13.493Z,2.72
2023-03-25T10:16:58.244Z,2.80
2023-03-25T10:19:51.319Z,3.22
2023-03-25T10:22:27.927Z,1.70
2023-03-25T10:25:01.959Z,2.33
2023-03-25T10:27:37.332Z,2.08
2023-03-25T10:30:15.534Z,1.75
2023-03-25T10:32:48.530Z,1.58
2023-03-25T10:35:21.911Z,1.80
2023-03-25T10:37:54.483Z,1.90
2023-03-25T10:40:30.265Z,2.08
2023-03-25T10:43:17.265Z,2.15
2023-03-25T10:45:48.691Z,1.88
2023-03-25T10:48:23.205Z,2.17
2023-03-25T10:50:54.205Z,0.95
2023-03-25T10:53:27.565Z,1.15
2023-03-25T10:56:04.085Z,1.73
2023-03-25T10:58:35.710Z,1.60
2023-03-25T11:01:13.557Z,2.25
2023-03-25T11:03:44.657Z,2.00
2023-03-25T11:06:24.522Z,3.00
2023-03-25T11:09:12.581Z,4.07
2023-03-25T11:11:44.077Z,3.28
2023-03-25T11:14:14.766Z,3.80
2023-03-25T11:16:47.928Z,3.22
2023-03-25T11:19:26.380Z,3.05
2023-03-25T11:22:01.100Z,3.35
2023-03-25T11:24:34.644Z,3.95
2023-03-25T11:27:08.863Z,2.30
2023-03-25T11:29:39.588Z,2.70
2023-03-25T11:32:14.534Z,3.08
2023-03-25T11:34:48.846Z,1.92
2023-03-25T11:37:20.178Z,2.10
2023-03-25T11:39:55.907Z,2.13
2023-03-25T11:42:37.120Z,2.28
2023-03-25T11:45:08.545Z,2.00
2023-03-25T11:47:40.755Z,1.83
2023-03-25T11:50:22.625Z,1.30
2023-03-25T11:52:54.789Z,1.15
2023-03-25T11:55:27.749Z,1.30
2023-03-25T11:58:00.677Z,1.50
2023-03-25T12:00:38.354Z,1.30
2023-03-25T12:03:20.389Z,0.88
2023-03-25T12:06:02.141Z,1.20
2023-03-25T12:08:42.834Z,1.48
2023-03-25T12:13:57.810Z,1.67
2023-03-25T12:16:36.634Z,1.98
2023-03-25T12:19:15.328Z,1.80
2023-03-25T12:22:06.838Z,1.65
2023-03-25T12:24:50.251Z,1.88
2023-03-25T12:27:33.146Z,1.35
2023-03-25T12:30:13.061Z,1.40
2023-03-25T12:32:49.372Z,1.67
2023-03-25T12:35:28.781Z,1.60
2023-03-25T12:38:26.975Z,1.20
2023-03-25T12:41:17.573Z,1.45
2023-03-25T12:46:41.691Z,1.58
2023-03-25T12:49:26.723Z,1.45
2023-03-25T12:52:04.639Z,2.10
2023-03-25T12:54:48.147Z,1.40
2023-03-25T12:57:29.479Z,1.50
2023-03-25T13:00:25.779Z,1.05
2023-03-25T13:03:23.080Z,1.42
2023-03-25T13:06:00.913Z,1.27
2023-03-25T13:08:36.595Z,1.80
2023-03-25T13:11:11.806Z,1.30
2023-03-25T13:13:43.191Z,1.05
2023-03-25T13:16:16.466Z,1.73
2023-03-25T13:18:52.049Z,1.88
2023-03-25T13:21:24.432Z,1.65
2023-03-25T13:23:59.939Z,1.85
2023-03-25T13:26:32.832Z,1.63
2023-03-25T13:29:05.767Z,2.10
2023-03-25T13:31:41.385Z,2.00
2023-03-25T13:34:25.734Z,2.67
2023-03-25T13:37:10.413Z,1.52
2023-03-25T13:40:14.687Z,1.48
2023-03-25T13:42:52.086Z,1.10
2023-03-25T13:45:23.238Z,1.75
2023-03-25T13:47:58.519Z,1.60
2023-03-25T13:50:31.973Z,1.80
2023-03-25T13:53:08.703Z,2.10
2023-03-25T13:55:41.498Z,2.50
2023-03-25T13:58:33.450Z,2.92
2023-03-25T14:01:37.301Z,0.90
2023-03-25T14:04:48.984Z,0.80
2023-03-25T14:07:54.662Z,1.05
2023-03-25T14:10:51.429Z,0.52
2023-03-25T14:13:26.906Z,0.60
2023-03-25T14:16:02.417Z,0.57
2023-03-25T14:18:33.009Z,0.40
2023-03-25T14:23:44.541Z,0.63
2023-03-25T14:26:19.450Z,0.50
2023-03-25T14:28:51.599Z,0.65
2023-03-25T14:31:32.176Z,1.05
2023-03-25T14:34:29.257Z,0.32
2023-03-25T14:37:27.715Z,0.30
2023-03-25T14:40:00.329Z,0.50
2023-03-25T14:42:43.730Z,0.60
2023-03-25T14:45:43.539Z,1.10
2023-03-25T14:48:34.807Z,0.80
2023-03-25T14:51:23.865Z,1.33
2023-03-25T14:53:56.839Z,1.20
2023-03-25T14:56:33.870Z,1.33
2023-03-25T14:59:10.835Z,1.30
2023-03-25T15:01:42.374Z,1.20
2023-03-25T15:04:16.835Z,1.55
2023-03-25T15:06:49.418Z,1.50
2023-03-25T15:09:21.017Z,1.60
2023-03-25T15:11:58.867Z,2.05
2023-03-25T15:14:33.540Z,1.50
2023-03-25T15:17:07.272Z,1.90
2023-03-25T15:20:15.990Z,2.22
2023-03-25T15:22:45.740Z,2.20
2023-03-25T15:25:18.993Z,2.20
2023-03-25T15:28:04.271Z,1.95
2023-03-25T15:31:01.443Z,2.45
2023-03-25T15:33:47.682Z,2.88
2023-03-25T15:36:46.990Z,2.10
2023-03-25T15:39:36.088Z,2.90
2023-03-25T15:42:40.408Z,2.22
2023-03-25T15:45:37.945Z,2.38
2023-03-25T15:48:36.674Z,2.22
2023-03-25T15:51:32.998Z,2.72
2023-03-25T15:54:31.449Z,2.80
2023-03-25T15:57:06.623Z,2.67
2023-03-25T15:59:43.521Z,2.55
2023-03-25T16:02:28.033Z,2.53
2023-03-25T16:05:00.129Z,2.30
2023-03-25T16:07:31.796Z,1.50
2023-03-25T16:10:14.956Z,1.45
2023-03-25T16:12:46.057Z,1.30
2023-03-25T16:15:17.106Z,1.60
2023-03-25T16:17:48.417Z,1.40
2023-03-25T16:20:23.492Z,1.27
2023-03-25T16:22:55.278Z,1.20
2023-03-25T16:25:28.669Z,1.33
2023-03-25T16:27:59.132Z,2.10
2023-03-25T16:30:34.103Z,1.92
2023-03-25T16:33:17.679Z,2.10
2023-03-25T16:35:51.829Z,1.75
2023-03-25T16:38:23.065Z,2.17
2023-03-25T16:40:53.245Z,1.85
2023-03-25T16:43:26.497Z,1.80
2023-03-25T16:46:00.121Z,1.90
2023-03-25T16:48:31.532Z,2.25
2023-03-25T16:51:08.910Z,2.10
2023-03-25T16:53:40.924Z,2.45
2023-03-25T16:56:25.296Z,1.95
2023-03-25T16:59:00.437Z,2.85
2023-03-25T17:01:33.695Z,2.10
2023-03-25T17:04:19.091Z,2.55
2023-03-25T17:06:53.626Z,2.22
2023-03-25T17:09:25.357Z,2.20
2023-03-25T17:11:57.912Z,1.88
2023-03-25T17:14:31.788Z,2.67
2023-03-25T17:17:09.782Z,2.55
2023-03-25T17:19:46.435Z,3.85
2023-03-25T17:22:25.549Z,4.07
2023-03-25T17:24:58.419Z,5.00
2023-03-25T17:27:34.852Z,3.15
2023-03-25T17:30:22.122Z,2.78
2023-03-25T17:32:53.492Z,2.80
2023-03-25T17:37:59.136Z,2.90
2023-03-25T17:40:30.790Z,2.92
2023-03-25T17:43:00.466Z,3.00
2023-03-25T17:45:30.129Z,3.10
2023-03-25T17:47:59.745Z,3.03
2023-03-25T17:50:29.008Z,2.80
2023-03-25T17:52:59.982Z,3.30
2023-03-25T17:55:29.560Z,3.00
2023-03-25T17:57:59.818Z,3.30
2023-03-25T18:00:29.159Z,3.05
2023-03-25T18:02:59.129Z,4.23
2023-03-25T18:05:28.578Z,4.22
2023-03-25T18:08:00.222Z,4.20
2023-03-25T18:10:31.222Z,4.15
2023-03-25T18:13:00.983Z,4.80
2023-03-25T18:15:30.406Z,4.22
2023-03-25T18:18:00.171Z,4.13
2023-03-25T18:20:32.486Z,4.63
2023-03-25T18:23:03.861Z,3.58
2023-03-25T18:25:34.623Z,4.03
2023-03-25T18:28:04.381Z,3.90
2023-03-25T18:30:42.195Z,4.05
2023-03-25T18:33:12.031Z,4.32
2023-03-25T18:35:42.700Z,4.20
2023-03-25T18:38:19.466Z,4.45
2023-03-25T18:40:49.683Z,4.70
2023-03-25T18:43:19.926Z,4.63
2023-03-25T18:45:50.423Z,4.53
2023-03-25T18:48:22.521Z,4.18
2023-03-25T18:50:55.509Z,2.92
2023-03-25T18:53:28.722Z,3.55
2023-03-25T18:56:00.383Z,3.90
2023-03-25T18:58:33.169Z,5.10
2023-03-25T19:01:03.954Z,5.13
2023-03-25T19:03:39.118Z,5.50
2023-03-25T19:06:11.014Z,6.53
2023-03-25T19:08:43.575Z,6.28
2023-03-25T19:11:21.066Z,7.43
2023-03-25T19:13:51.992Z,8.02
2023-03-25T19:16:22.459Z,8.18
2023-03-25T19:21:22.125Z,7.60
2023-03-25T19:23:53.829Z,7.28
2023-03-25T19:26:23.061Z,8.23
2023-03-25T19:28:52.778Z,7.43
2023-03-25T19:31:22.068Z,8.23
2023-03-25T19:33:53.199Z,8.15
2023-03-25T19:36:23.337Z,7.90
2023-03-25T19:38:56.511Z,8.88
2023-03-25T19:41:25.866Z,7.95
2023-03-25T19:43:55.704Z,7.25
2023-03-25T19:46:25.438Z,7.10
2023-03-25T19:48:55.219Z,7.32
2023-03-25T19:51:24.416Z,7.07
2023-03-25T19:53:55.564Z,8.70
2023-03-25T19:56:25.046Z,8.30
2023-03-25T19:58:54.617Z,7.68
2023-03-25T20:01:24.723Z,7.35
2023-03-25T20:03:54.881Z,7.20
2023-03-25T20:06:24.289Z,6.88
2023-03-25T20:08:55.913Z,7.63
2023-03-25T20:11:25.132Z,7.13
2023-03-25T20:13:54.923Z,6.75
2023-03-25T20:16:24.259Z,6.35
2023-03-25T20:18:54.205Z,6.82
2023-03-25T20:21:25.210Z,7.65
2023-03-25T20:23:56.472Z,6.82
2023-03-25T20:26:25.954Z,7.30
2023-03-25T20:28:55.697Z,6.40
2023-03-25T20:31:25.969Z,6.15
2023-03-25T20:33:56.267Z,6.03
2023-03-25T20:36:25.608Z,5.93
2023-03-25T20:38:58.167Z,6.25
2023-03-25T20:41:28.076Z,6.22
2023-03-25T20:43:57.630Z,6.50
2023-03-25T20:46:29.069Z,5.05
2023-03-25T20:48:59.739Z,5.07
2023-03-25T20:51:29.087Z,6.37
2023-03-25T20:54:00.387Z,6.97
2023-03-25T20:56:29.765Z,5.40
2023-03-25T20:58:59.593Z,4.88
2023-03-25T21:01:28.937Z,4.97
2023-03-25T21:03:58.901Z,4.78
2023-03-25T21:06:28.672Z,5.60
2023-03-25T21:09:06.857Z,6.17
2023-03-25T21:11:36.864Z,7.90
2023-03-25T21:14:06.834Z,7.28
2023-03-25T21:16:36.100Z,6.80
2023-03-25T21:19:08.141Z,8.32
2023-03-25T21:21:38.918Z,8.38
2023-03-25T21:24:11.600Z,8.25
2023-03-25T21:26:41.185Z,8.40
2023-03-25T21:29:11.005Z,7.55
2023-03-25T21:31:40.979Z,8.52
2023-03-25T21:34:11.400Z,9.50
2023-03-25T21:36:40.952Z,7.30
2023-03-25T21:39:12.649Z,6.25
2023-03-25T21:41:42.139Z,4.80
2023-03-25T21:44:12.897Z,3.75
2023-03-25T21:46:42.533Z,3.75
2023-03-25T21:49:14.562Z,3.03
2023-03-25T21:51:44.559Z,3.20
2023-03-25T21:54:15.831Z,2.80
2023-03-25T21:59:14.292Z,2.13
2023-03-25T22:01:43.562Z,2.65
2023-03-25T22:04:13.160Z,2.97
2023-03-25T22:06:42.566Z,2.53
2023-03-25T22:09:12.468Z,2.57
2023-03-25T22:11:43.235Z,2.70
2023-03-25T22:14:12.925Z,2.33
2023-03-25T22:16:42.317Z,2.45
2023-03-25T22:19:14.596Z,2.13
2023-03-25T22:21:43.968Z,2.33
2023-03-25T22:24:13.619Z,2.67
2023-03-25T22:26:44.656Z,3.05
2023-03-25T22:29:14.323Z,2.50
2023-03-25T22:31:43.687Z,2.53
2023-03-25T22:34:15.841Z,2.22
2023-03-25T22:36:50.882Z,2.17
2023-03-25T22:39:23.373Z,2.47
2023-03-25T22:41:54.548Z,2.50
2023-03-25T22:44:24.746Z,2.65
2023-03-25T22:46:54.109Z,2.50
2023-03-25T22:49:24.175Z,2.70
2023-03-25T22:51:54.409Z,2.90
2023-03-25T22:54:24.311Z,3.55
2023-03-25T22:56:55.491Z,2.58
2023-03-25T22:59:25.258Z,2.90
2023-03-25T23:01:54.744Z,2.78
2023-03-25T23:04:24.521Z,3.20
2023-03-25T23:07:05.061Z,2.63
2023-03-25T23:09:42.747Z,2.53
2023-03-25T23:12:17.158Z,2.90
2023-03-25T23:14:51.162Z,3.28
2023-03-25T23:17:20.479Z,2.75
2023-03-25T23:19:50.572Z,2.50
2023-03-25T23:22:21.424Z,2.67
2023-03-25T23:24:50.985Z,2.25
2023-03-25T23:27:22.802Z,3.15
2023-03-25T23:29:52.540Z,2.90
2023-03-25T23:32:21.842Z,3.45
2023-03-25T23:34:51.506Z,2.47
2023-03-25T23:37:20.700Z,3.03
2023-03-25T23:39:50.933Z,3.00
2023-03-25T23:42:21.601Z,2.30
2023-03-25T23:47:20.974Z,2.65
2023-03-25T23:49:50.531Z,2.88
2023-03-25T23:52:20.280Z,2.58
2023-03-25T23:54:50.184Z,2.92
2023-03-25T23:57:21.432Z,2.92
2023-03-25T23:59:51.646Z,3.08
